Terminal Aerodrome Forecast
Issued by NWS

Home | Current Version | Previous Version | Graphics & Text | Print | Product List | Glossary On
Versions: 1 2 3 4 5 6 7 8 9 10 11 12 13 14 15 16 17 18
000
FTUS43 KFGF 252300
TAFBJI
TAF
KBJI 252338Z 2600/2624 09004KT P6SM OVC017
      TEMPO 2600/2602 SKC
     FM261000 33008KT P6SM OVC015
     FM261700 33009KT P6SM BKN020=

USA.gov is the U.S. government's official web portal to all federal, state and local government web resources and services.